Terminal Aerodrome Forecast
Issued by NWS

Home | Current Version | Previous Version | Text Only | Print | Product List | Glossary Off
Versions: 1 2 3 4 5 6 7 8 9 10 11 12 13 14 15 16 17 18 19 20 21 22

000
FTUS43 KMPX 241500 AAA
TAFAXN
TAF AMD
KAXN 241500Z 2415/2512 32007KT 3SM BR OVC002
     FM241700 30007KT 6SM BR OVC006
     FM242100 27006KT P6SM SCT007 OVC012
     FM250500 20007KT P6SM SCT015 OVC070
     FM251000 22005KT P6SM OVC015=

USA.gov is the U.S. government's official web portal to all federal, state and local government web resources and services.